<?xml version="1.0" encoding="UTF-8" standalone="no" ?>
<gpx xmlns="http://www.topografix.com/GPX/1/1" xmlns:xsi="http://www.w3.org/2001/XMLSchema-instance" xsi:schemaLocation="http://www.topografix.com/GPX/1/1 http://www.topografix.com/GPX/1/1/gpx.xsd" version="1.1" creator="VisuGPX - https://www.visugpx.com">
  <metadata>
    <name>Le penay 28/06/2013</name>
    <desc><![CDATA[Le penay 28/06/2013]]></desc>
  </metadata>
  <trk>
    <name><![CDATA[2013-06-28T06:32:39Z]]></name>
    <trkseg>
      <trkpt lat="45.59181" lon="5.98211">
        <ele>656.4154053</ele>
        <time>2013-06-28T06:32:39Z</time>
      </trkpt>
      <trkpt lat="45.59182" lon="5.98239">
        <ele>625.2011719</ele>
        <time>2013-06-28T06:33:17Z</time>
      </trkpt>
      <trkpt lat="45.59177" lon="5.9827">
        <ele>594.7335815</ele>
        <time>2013-06-28T06:33:48Z</time>
      </trkpt>
      <trkpt lat="45.59174" lon="5.98298">
        <ele>622.1873169</ele>
        <time>2013-06-28T06:34:02Z</time>
      </trkpt>
      <trkpt lat="45.5917" lon="5.98332">
        <ele>627.890625</ele>
        <time>2013-06-28T06:34:18Z</time>
      </trkpt>
      <trkpt lat="45.59165" lon="5.98362">
        <ele>643.1363525</ele>
        <time>2013-06-28T06:34:33Z</time>
      </trkpt>
      <trkpt lat="45.59159" lon="5.98388">
        <ele>637.9910889</ele>
        <time>2013-06-28T06:34:49Z</time>
      </trkpt>
      <trkpt lat="45.59148" lon="5.98409">
        <ele>626.4707642</ele>
        <time>2013-06-28T06:35:01Z</time>
      </trkpt>
      <trkpt lat="45.59134" lon="5.98432">
        <ele>629.5956421</ele>
        <time>2013-06-28T06:35:19Z</time>
      </trkpt>
      <trkpt lat="45.5912" lon="5.98448">
        <ele>634.2700195</ele>
        <time>2013-06-28T06:35:33Z</time>
      </trkpt>
      <trkpt lat="45.59102" lon="5.98462">
        <ele>648.1323853</ele>
        <time>2013-06-28T06:35:46Z</time>
      </trkpt>
      <trkpt lat="45.59085" lon="5.98473">
        <ele>647.4176025</ele>
        <time>2013-06-28T06:36:06Z</time>
      </trkpt>
      <trkpt lat="45.59068" lon="5.98481">
        <ele>637.1154175</ele>
        <time>2013-06-28T06:36:40Z</time>
      </trkpt>
      <trkpt lat="45.59077" lon="5.98505">
        <ele>643.8588257</ele>
        <time>2013-06-28T06:37:56Z</time>
      </trkpt>
      <trkpt lat="45.59096" lon="5.98507">
        <ele>624.6868896</ele>
        <time>2013-06-28T06:39:06Z</time>
      </trkpt>
      <trkpt lat="45.59115" lon="5.98488">
        <ele>630.6739502</ele>
        <time>2013-06-28T06:39:37Z</time>
      </trkpt>
      <trkpt lat="45.5913" lon="5.98467">
        <ele>629.9414062</ele>
        <time>2013-06-28T06:39:56Z</time>
      </trkpt>
      <trkpt lat="45.59146" lon="5.98452">
        <ele>627.3828735</ele>
        <time>2013-06-28T06:40:19Z</time>
      </trkpt>
      <trkpt lat="45.59161" lon="5.9843">
        <ele>633.2764282</ele>
        <time>2013-06-28T06:40:32Z</time>
      </trkpt>
      <trkpt lat="45.59173" lon="5.9841">
        <ele>633.6502075</ele>
        <time>2013-06-28T06:40:45Z</time>
      </trkpt>
      <trkpt lat="45.59192" lon="5.98398">
        <ele>642.4371338</ele>
        <time>2013-06-28T06:40:57Z</time>
      </trkpt>
      <trkpt lat="45.59206" lon="5.9837">
        <ele>673.9703979</ele>
        <time>2013-06-28T06:41:09Z</time>
      </trkpt>
      <trkpt lat="45.59222" lon="5.98353">
        <ele>678.5390625</ele>
        <time>2013-06-28T06:41:18Z</time>
      </trkpt>
      <trkpt lat="45.59234" lon="5.98334">
        <ele>680.758728</ele>
        <time>2013-06-28T06:41:33Z</time>
      </trkpt>
      <trkpt lat="45.5924" lon="5.9831">
        <ele>686.513916</ele>
        <time>2013-06-28T06:41:54Z</time>
      </trkpt>
      <trkpt lat="45.59253" lon="5.98329">
        <ele>674.0410156</ele>
        <time>2013-06-28T06:42:30Z</time>
      </trkpt>
      <trkpt lat="45.5926" lon="5.98353">
        <ele>669.6009521</ele>
        <time>2013-06-28T06:42:56Z</time>
      </trkpt>
      <trkpt lat="45.5926" lon="5.98378">
        <ele>677.937439</ele>
        <time>2013-06-28T06:43:21Z</time>
      </trkpt>
      <trkpt lat="45.59251" lon="5.984">
        <ele>723.3585815</ele>
        <time>2013-06-28T06:44:16Z</time>
      </trkpt>
      <trkpt lat="45.59236" lon="5.98415">
        <ele>714.522522</ele>
        <time>2013-06-28T06:44:31Z</time>
      </trkpt>
      <trkpt lat="45.59228" lon="5.9844">
        <ele>698.2988892</ele>
        <time>2013-06-28T06:44:54Z</time>
      </trkpt>
      <trkpt lat="45.59229" lon="5.98466">
        <ele>690.9486084</ele>
        <time>2013-06-28T06:45:19Z</time>
      </trkpt>
      <trkpt lat="45.59229" lon="5.98494">
        <ele>686.0463257</ele>
        <time>2013-06-28T06:45:34Z</time>
      </trkpt>
      <trkpt lat="45.59226" lon="5.98519">
        <ele>693.7510376</ele>
        <time>2013-06-28T06:45:50Z</time>
      </trkpt>
      <trkpt lat="45.59221" lon="5.98544">
        <ele>699.0109863</ele>
        <time>2013-06-28T06:46:12Z</time>
      </trkpt>
      <trkpt lat="45.5922" lon="5.98572">
        <ele>707.5459595</ele>
        <time>2013-06-28T06:46:40Z</time>
      </trkpt>
      <trkpt lat="45.59218" lon="5.98597">
        <ele>719.0422974</ele>
        <time>2013-06-28T06:46:52Z</time>
      </trkpt>
      <trkpt lat="45.59218" lon="5.98623">
        <ele>721.8145752</ele>
        <time>2013-06-28T06:47:06Z</time>
      </trkpt>
      <trkpt lat="45.59219" lon="5.98649">
        <ele>719.831543</ele>
        <time>2013-06-28T06:47:32Z</time>
      </trkpt>
      <trkpt lat="45.59231" lon="5.98627">
        <ele>718.7751465</ele>
        <time>2013-06-28T06:47:59Z</time>
      </trkpt>
      <trkpt lat="45.59245" lon="5.9861">
        <ele>723.3430786</ele>
        <time>2013-06-28T06:48:26Z</time>
      </trkpt>
      <trkpt lat="45.59255" lon="5.98587">
        <ele>725.5767822</ele>
        <time>2013-06-28T06:48:49Z</time>
      </trkpt>
      <trkpt lat="45.59264" lon="5.98563">
        <ele>733.4258423</ele>
        <time>2013-06-28T06:49:13Z</time>
      </trkpt>
      <trkpt lat="45.59276" lon="5.98544">
        <ele>737.4456787</ele>
        <time>2013-06-28T06:49:35Z</time>
      </trkpt>
      <trkpt lat="45.59288" lon="5.98523">
        <ele>739.9465942</ele>
        <time>2013-06-28T06:49:54Z</time>
      </trkpt>
      <trkpt lat="45.59297" lon="5.98501">
        <ele>738.526062</ele>
        <time>2013-06-28T06:50:23Z</time>
      </trkpt>
      <trkpt lat="45.59312" lon="5.98484">
        <ele>740.6077881</ele>
        <time>2013-06-28T06:50:44Z</time>
      </trkpt>
      <trkpt lat="45.59323" lon="5.98464">
        <ele>749.0927734</ele>
        <time>2013-06-28T06:51:12Z</time>
      </trkpt>
      <trkpt lat="45.59336" lon="5.98445">
        <ele>748.5842285</ele>
        <time>2013-06-28T06:51:52Z</time>
      </trkpt>
      <trkpt lat="45.59353" lon="5.98436">
        <ele>754.0084229</ele>
        <time>2013-06-28T06:52:19Z</time>
      </trkpt>
      <trkpt lat="45.59373" lon="5.98433">
        <ele>755.6415405</ele>
        <time>2013-06-28T06:52:42Z</time>
      </trkpt>
      <trkpt lat="45.59368" lon="5.98458">
        <ele>767.602356</ele>
        <time>2013-06-28T06:56:05Z</time>
      </trkpt>
      <trkpt lat="45.59359" lon="5.98481">
        <ele>765.4342041</ele>
        <time>2013-06-28T06:56:33Z</time>
      </trkpt>
      <trkpt lat="45.59351" lon="5.98504">
        <ele>771.446228</ele>
        <time>2013-06-28T06:56:58Z</time>
      </trkpt>
      <trkpt lat="45.59343" lon="5.98529">
        <ele>772.2391968</ele>
        <time>2013-06-28T06:57:20Z</time>
      </trkpt>
      <trkpt lat="45.5934" lon="5.98555">
        <ele>772.4588623</ele>
        <time>2013-06-28T06:57:44Z</time>
      </trkpt>
      <trkpt lat="45.59342" lon="5.98582">
        <ele>786.9876099</ele>
        <time>2013-06-28T06:58:20Z</time>
      </trkpt>
      <trkpt lat="45.59353" lon="5.98603">
        <ele>763.9118042</ele>
        <time>2013-06-28T06:58:54Z</time>
      </trkpt>
      <trkpt lat="45.59359" lon="5.98627">
        <ele>779.8590088</ele>
        <time>2013-06-28T06:59:09Z</time>
      </trkpt>
      <trkpt lat="45.59347" lon="5.98649">
        <ele>786.425354</ele>
        <time>2013-06-28T06:59:31Z</time>
      </trkpt>
      <trkpt lat="45.5935" lon="5.98675">
        <ele>799.4227295</ele>
        <time>2013-06-28T06:59:49Z</time>
      </trkpt>
      <trkpt lat="45.59347" lon="5.987">
        <ele>803.6376343</ele>
        <time>2013-06-28T07:00:12Z</time>
      </trkpt>
      <trkpt lat="45.5935" lon="5.98725">
        <ele>801.9511719</ele>
        <time>2013-06-28T07:00:35Z</time>
      </trkpt>
      <trkpt lat="45.59367" lon="5.98712">
        <ele>831.1762085</ele>
        <time>2013-06-28T07:01:27Z</time>
      </trkpt>
      <trkpt lat="45.59369" lon="5.98687">
        <ele>822.3520508</ele>
        <time>2013-06-28T07:01:48Z</time>
      </trkpt>
      <trkpt lat="45.59378" lon="5.98663">
        <ele>826.3329468</ele>
        <time>2013-06-28T07:02:13Z</time>
      </trkpt>
      <trkpt lat="45.59381" lon="5.98637">
        <ele>828.8605347</ele>
        <time>2013-06-28T07:02:41Z</time>
      </trkpt>
      <trkpt lat="45.5939" lon="5.98614">
        <ele>836.8567505</ele>
        <time>2013-06-28T07:03:06Z</time>
      </trkpt>
      <trkpt lat="45.59401" lon="5.98593">
        <ele>827.3985596</ele>
        <time>2013-06-28T07:03:44Z</time>
      </trkpt>
      <trkpt lat="45.59411" lon="5.98571">
        <ele>832.675415</ele>
        <time>2013-06-28T07:04:18Z</time>
      </trkpt>
      <trkpt lat="45.59426" lon="5.98554">
        <ele>830.4463501</ele>
        <time>2013-06-28T07:04:50Z</time>
      </trkpt>
      <trkpt lat="45.59446" lon="5.98549">
        <ele>845.0574951</ele>
        <time>2013-06-28T07:05:18Z</time>
      </trkpt>
      <trkpt lat="45.59464" lon="5.98543">
        <ele>839.9699707</ele>
        <time>2013-06-28T07:05:42Z</time>
      </trkpt>
      <trkpt lat="45.59482" lon="5.98534">
        <ele>834.0349121</ele>
        <time>2013-06-28T07:07:20Z</time>
      </trkpt>
      <trkpt lat="45.59475" lon="5.98558">
        <ele>842.7714233</ele>
        <time>2013-06-28T07:09:19Z</time>
      </trkpt>
      <trkpt lat="45.59463" lon="5.9858">
        <ele>856.7137451</ele>
        <time>2013-06-28T07:10:00Z</time>
      </trkpt>
      <trkpt lat="45.59453" lon="5.98604">
        <ele>858.6630859</ele>
        <time>2013-06-28T07:10:13Z</time>
      </trkpt>
      <trkpt lat="45.5945" lon="5.98634">
        <ele>856.0067139</ele>
        <time>2013-06-28T07:10:37Z</time>
      </trkpt>
      <trkpt lat="45.59451" lon="5.9866">
        <ele>858.3843384</ele>
        <time>2013-06-28T07:11:09Z</time>
      </trkpt>
      <trkpt lat="45.59456" lon="5.98688">
        <ele>865.670166</ele>
        <time>2013-06-28T07:11:32Z</time>
      </trkpt>
      <trkpt lat="45.59451" lon="5.98713">
        <ele>877.3731689</ele>
        <time>2013-06-28T07:11:55Z</time>
      </trkpt>
      <trkpt lat="45.59453" lon="5.9874">
        <ele>874.8818359</ele>
        <time>2013-06-28T07:12:42Z</time>
      </trkpt>
      <trkpt lat="45.59459" lon="5.98765">
        <ele>881.7961426</ele>
        <time>2013-06-28T07:13:09Z</time>
      </trkpt>
      <trkpt lat="45.59462" lon="5.98791">
        <ele>882.7409668</ele>
        <time>2013-06-28T07:13:35Z</time>
      </trkpt>
      <trkpt lat="45.59463" lon="5.98817">
        <ele>895.7537842</ele>
        <time>2013-06-28T07:14:08Z</time>
      </trkpt>
      <trkpt lat="45.5946" lon="5.98844">
        <ele>894.9783325</ele>
        <time>2013-06-28T07:14:50Z</time>
      </trkpt>
      <trkpt lat="45.59461" lon="5.9887">
        <ele>906.0183716</ele>
        <time>2013-06-28T07:15:20Z</time>
      </trkpt>
      <trkpt lat="45.59472" lon="5.98891">
        <ele>917.6320801</ele>
        <time>2013-06-28T07:15:47Z</time>
      </trkpt>
      <trkpt lat="45.59475" lon="5.98921">
        <ele>924.8762207</ele>
        <time>2013-06-28T07:18:00Z</time>
      </trkpt>
      <trkpt lat="45.59479" lon="5.98953">
        <ele>926.1517944</ele>
        <time>2013-06-28T07:18:33Z</time>
      </trkpt>
      <trkpt lat="45.59493" lon="5.98975">
        <ele>925.1679688</ele>
        <time>2013-06-28T07:19:09Z</time>
      </trkpt>
      <trkpt lat="45.59499" lon="5.99002">
        <ele>922.3208008</ele>
        <time>2013-06-28T07:19:40Z</time>
      </trkpt>
      <trkpt lat="45.59506" lon="5.99025">
        <ele>915.2418823</ele>
        <time>2013-06-28T07:20:12Z</time>
      </trkpt>
      <trkpt lat="45.59509" lon="5.99052">
        <ele>945.6418457</ele>
        <time>2013-06-28T07:20:46Z</time>
      </trkpt>
      <trkpt lat="45.59505" lon="5.99077">
        <ele>950.9591675</ele>
        <time>2013-06-28T07:21:31Z</time>
      </trkpt>
      <trkpt lat="45.59519" lon="5.99094">
        <ele>937.0098267</ele>
        <time>2013-06-28T07:23:12Z</time>
      </trkpt>
      <trkpt lat="45.59532" lon="5.99112">
        <ele>945.8776245</ele>
        <time>2013-06-28T07:23:31Z</time>
      </trkpt>
      <trkpt lat="45.5954" lon="5.99136">
        <ele>936.8696289</ele>
        <time>2013-06-28T07:24:04Z</time>
      </trkpt>
      <trkpt lat="45.59543" lon="5.99163">
        <ele>965.1495361</ele>
        <time>2013-06-28T07:25:17Z</time>
      </trkpt>
      <trkpt lat="45.5953" lon="5.99181">
        <ele>992.7086792</ele>
        <time>2013-06-28T07:26:17Z</time>
      </trkpt>
      <trkpt lat="45.59539" lon="5.99204">
        <ele>987.4778442</ele>
        <time>2013-06-28T07:27:06Z</time>
      </trkpt>
      <trkpt lat="45.59547" lon="5.99227">
        <ele>979.7874146</ele>
        <time>2013-06-28T07:27:25Z</time>
      </trkpt>
      <trkpt lat="45.59548" lon="5.99253">
        <ele>984.9431763</ele>
        <time>2013-06-28T07:27:44Z</time>
      </trkpt>
      <trkpt lat="45.59552" lon="5.99278">
        <ele>986.0223999</ele>
        <time>2013-06-28T07:28:14Z</time>
      </trkpt>
      <trkpt lat="45.59564" lon="5.99299">
        <ele>988.8981323</ele>
        <time>2013-06-28T07:28:51Z</time>
      </trkpt>
      <trkpt lat="45.59566" lon="5.99325">
        <ele>996.7400513</ele>
        <time>2013-06-28T07:30:37Z</time>
      </trkpt>
      <trkpt lat="45.59568" lon="5.99351">
        <ele>995.8403931</ele>
        <time>2013-06-28T07:31:02Z</time>
      </trkpt>
      <trkpt lat="45.59581" lon="5.9937">
        <ele>1003.2611694</ele>
        <time>2013-06-28T07:31:48Z</time>
      </trkpt>
      <trkpt lat="45.59588" lon="5.99393">
        <ele>1005.2129517</ele>
        <time>2013-06-28T07:32:55Z</time>
      </trkpt>
      <trkpt lat="45.59588" lon="5.9942">
        <ele>1009.5016479</ele>
        <time>2013-06-28T07:33:18Z</time>
      </trkpt>
      <trkpt lat="45.59607" lon="5.99414">
        <ele>1018.6077271</ele>
        <time>2013-06-28T07:34:49Z</time>
      </trkpt>
      <trkpt lat="45.59612" lon="5.99388">
        <ele>1027.90625</ele>
        <time>2013-06-28T07:35:21Z</time>
      </trkpt>
      <trkpt lat="45.59621" lon="5.99411">
        <ele>1029.1022949</ele>
        <time>2013-06-28T07:36:11Z</time>
      </trkpt>
      <trkpt lat="45.59625" lon="5.99438">
        <ele>1030.7229004</ele>
        <time>2013-06-28T07:36:46Z</time>
      </trkpt>
      <trkpt lat="45.59624" lon="5.99464">
        <ele>1042.3393555</ele>
        <time>2013-06-28T07:37:19Z</time>
      </trkpt>
      <trkpt lat="45.59633" lon="5.99441">
        <ele>1047.7578125</ele>
        <time>2013-06-28T07:38:45Z</time>
      </trkpt>
      <trkpt lat="45.59642" lon="5.99417">
        <ele>1050.6745605</ele>
        <time>2013-06-28T07:39:32Z</time>
      </trkpt>
      <trkpt lat="45.59653" lon="5.99393">
        <ele>1056.2333984</ele>
        <time>2013-06-28T07:40:26Z</time>
      </trkpt>
      <trkpt lat="45.5966" lon="5.99417">
        <ele>1068.8824463</ele>
        <time>2013-06-28T07:42:21Z</time>
      </trkpt>
      <trkpt lat="45.5967" lon="5.9944">
        <ele>1074.8117676</ele>
        <time>2013-06-28T07:43:08Z</time>
      </trkpt>
      <trkpt lat="45.59669" lon="5.99466">
        <ele>1092.7685547</ele>
        <time>2013-06-28T07:44:08Z</time>
      </trkpt>
      <trkpt lat="45.59684" lon="5.99448">
        <ele>1093.7819824</ele>
        <time>2013-06-28T07:44:59Z</time>
      </trkpt>
      <trkpt lat="45.59693" lon="5.99426">
        <ele>1067.5341797</ele>
        <time>2013-06-28T07:45:52Z</time>
      </trkpt>
      <trkpt lat="45.59703" lon="5.99405">
        <ele>1101.1949463</ele>
        <time>2013-06-28T07:47:05Z</time>
      </trkpt>
      <trkpt lat="45.59709" lon="5.99374">
        <ele>1118.9537354</ele>
        <time>2013-06-28T07:47:38Z</time>
      </trkpt>
      <trkpt lat="45.59722" lon="5.99351">
        <ele>1109.532959</ele>
        <time>2013-06-28T07:47:56Z</time>
      </trkpt>
      <trkpt lat="45.59732" lon="5.99373">
        <ele>1075.267334</ele>
        <time>2013-06-28T07:49:30Z</time>
      </trkpt>
      <trkpt lat="45.59765" lon="5.99391">
        <ele>1069.7133789</ele>
        <time>2013-06-28T07:50:32Z</time>
      </trkpt>
      <trkpt lat="45.59757" lon="5.99364">
        <ele>1070.710083</ele>
        <time>2013-06-28T07:53:42Z</time>
      </trkpt>
      <trkpt lat="45.59755" lon="5.99333">
        <ele>1070.9586182</ele>
        <time>2013-06-28T07:53:59Z</time>
      </trkpt>
      <trkpt lat="45.5976" lon="5.99304">
        <ele>1070.5897217</ele>
        <time>2013-06-28T07:54:20Z</time>
      </trkpt>
      <trkpt lat="45.59769" lon="5.99278">
        <ele>1070.6842041</ele>
        <time>2013-06-28T07:54:53Z</time>
      </trkpt>
      <trkpt lat="45.59728" lon="5.99323">
        <ele>1072.5338135</ele>
        <time>2013-06-28T08:00:58Z</time>
      </trkpt>
      <trkpt lat="45.59684" lon="5.99391">
        <ele>1070.6383057</ele>
        <time>2013-06-28T08:02:26Z</time>
      </trkpt>
      <trkpt lat="45.59816" lon="5.99204">
        <ele>1070.6768799</ele>
        <time>2013-06-28T08:03:50Z</time>
      </trkpt>
      <trkpt lat="45.59717" lon="5.99328">
        <ele>1070.680542</ele>
        <time>2013-06-28T08:04:03Z</time>
      </trkpt>
      <trkpt lat="45.59753" lon="5.99318">
        <ele>1070.8934326</ele>
        <time>2013-06-28T08:04:16Z</time>
      </trkpt>
      <trkpt lat="45.59756" lon="5.99301">
        <ele>1070.6433105</ele>
        <time>2013-06-28T08:05:55Z</time>
      </trkpt>
      <trkpt lat="45.59748" lon="5.99325">
        <ele>1070.7740479</ele>
        <time>2013-06-28T08:07:43Z</time>
      </trkpt>
      <trkpt lat="45.59763" lon="5.99306">
        <ele>1070.3217773</ele>
        <time>2013-06-28T08:07:44Z</time>
      </trkpt>
      <trkpt lat="45.59762" lon="5.99337">
        <ele>1070.3737793</ele>
        <time>2013-06-28T08:09:24Z</time>
      </trkpt>
      <trkpt lat="45.59743" lon="5.99332">
        <ele>1070.6586914</ele>
        <time>2013-06-28T08:10:19Z</time>
      </trkpt>
      <trkpt lat="45.5973" lon="5.99355">
        <ele>1070.5775146</ele>
        <time>2013-06-28T08:12:19Z</time>
      </trkpt>
      <trkpt lat="45.5972" lon="5.99381">
        <ele>1077.5505371</ele>
        <time>2013-06-28T08:12:55Z</time>
      </trkpt>
      <trkpt lat="45.59709" lon="5.99403">
        <ele>1072.5136719</ele>
        <time>2013-06-28T08:13:05Z</time>
      </trkpt>
      <trkpt lat="45.59695" lon="5.99434">
        <ele>1076.0999756</ele>
        <time>2013-06-28T08:13:20Z</time>
      </trkpt>
      <trkpt lat="45.59685" lon="5.99458">
        <ele>1074.9390869</ele>
        <time>2013-06-28T08:13:31Z</time>
      </trkpt>
      <trkpt lat="45.59668" lon="5.99443">
        <ele>1046.4404297</ele>
        <time>2013-06-28T08:14:34Z</time>
      </trkpt>
      <trkpt lat="45.59665" lon="5.99416">
        <ele>1040.270752</ele>
        <time>2013-06-28T08:15:03Z</time>
      </trkpt>
      <trkpt lat="45.59655" lon="5.99393">
        <ele>1041.2911377</ele>
        <time>2013-06-28T08:15:25Z</time>
      </trkpt>
      <trkpt lat="45.59654" lon="5.9936">
        <ele>1077.8846436</ele>
        <time>2013-06-28T08:15:59Z</time>
      </trkpt>
      <trkpt lat="45.5965" lon="5.99387">
        <ele>1058.5748291</ele>
        <time>2013-06-28T08:17:03Z</time>
      </trkpt>
      <trkpt lat="45.59642" lon="5.99412">
        <ele>1048.3016357</ele>
        <time>2013-06-28T08:17:24Z</time>
      </trkpt>
      <trkpt lat="45.59635" lon="5.99437">
        <ele>1032.2556152</ele>
        <time>2013-06-28T08:18:01Z</time>
      </trkpt>
      <trkpt lat="45.5962" lon="5.99419">
        <ele>1007.3425903</ele>
        <time>2013-06-28T08:19:16Z</time>
      </trkpt>
      <trkpt lat="45.59613" lon="5.99395">
        <ele>1004.0873413</ele>
        <time>2013-06-28T08:19:42Z</time>
      </trkpt>
      <trkpt lat="45.59601" lon="5.99415">
        <ele>1003.631897</ele>
        <time>2013-06-28T08:20:28Z</time>
      </trkpt>
      <trkpt lat="45.59586" lon="5.99399">
        <ele>982.9750366</ele>
        <time>2013-06-28T08:21:29Z</time>
      </trkpt>
      <trkpt lat="45.59586" lon="5.9937">
        <ele>984.3049927</ele>
        <time>2013-06-28T08:21:52Z</time>
      </trkpt>
      <trkpt lat="45.59575" lon="5.99347">
        <ele>973.8197021</ele>
        <time>2013-06-28T08:22:25Z</time>
      </trkpt>
      <trkpt lat="45.59565" lon="5.9932">
        <ele>975.1010132</ele>
        <time>2013-06-28T08:22:57Z</time>
      </trkpt>
      <trkpt lat="45.5956" lon="5.99295">
        <ele>962.7097168</ele>
        <time>2013-06-28T08:23:18Z</time>
      </trkpt>
      <trkpt lat="45.59553" lon="5.99265">
        <ele>998.0409546</ele>
        <time>2013-06-28T08:23:54Z</time>
      </trkpt>
      <trkpt lat="45.59544" lon="5.9924">
        <ele>1001.3374634</ele>
        <time>2013-06-28T08:24:11Z</time>
      </trkpt>
      <trkpt lat="45.59545" lon="5.99214">
        <ele>968.3597412</ele>
        <time>2013-06-28T08:24:25Z</time>
      </trkpt>
      <trkpt lat="45.59546" lon="5.99188">
        <ele>942.7655029</ele>
        <time>2013-06-28T08:24:52Z</time>
      </trkpt>
      <trkpt lat="45.59547" lon="5.99158">
        <ele>929.979126</ele>
        <time>2013-06-28T08:25:18Z</time>
      </trkpt>
      <trkpt lat="45.59536" lon="5.99135">
        <ele>916.6881714</ele>
        <time>2013-06-28T08:25:55Z</time>
      </trkpt>
      <trkpt lat="45.59523" lon="5.99116">
        <ele>919.2314453</ele>
        <time>2013-06-28T08:26:11Z</time>
      </trkpt>
      <trkpt lat="45.59516" lon="5.99092">
        <ele>894.2371216</ele>
        <time>2013-06-28T08:26:47Z</time>
      </trkpt>
      <trkpt lat="45.59517" lon="5.99064">
        <ele>901.0963745</ele>
        <time>2013-06-28T08:27:03Z</time>
      </trkpt>
      <trkpt lat="45.5951" lon="5.99027">
        <ele>907.8034058</ele>
        <time>2013-06-28T08:27:30Z</time>
      </trkpt>
      <trkpt lat="45.59502" lon="5.99003">
        <ele>910.7272949</ele>
        <time>2013-06-28T08:27:38Z</time>
      </trkpt>
      <trkpt lat="45.5949" lon="5.98981">
        <ele>889.5563965</ele>
        <time>2013-06-28T08:28:11Z</time>
      </trkpt>
      <trkpt lat="45.59482" lon="5.98957">
        <ele>893.8405151</ele>
        <time>2013-06-28T08:28:46Z</time>
      </trkpt>
      <trkpt lat="45.59484" lon="5.98931">
        <ele>892.5532227</ele>
        <time>2013-06-28T08:29:09Z</time>
      </trkpt>
      <trkpt lat="45.59481" lon="5.98905">
        <ele>893.697876</ele>
        <time>2013-06-28T08:29:42Z</time>
      </trkpt>
      <trkpt lat="45.5947" lon="5.98884">
        <ele>885.0951538</ele>
        <time>2013-06-28T08:29:57Z</time>
      </trkpt>
      <trkpt lat="45.59465" lon="5.98856">
        <ele>869.4660034</ele>
        <time>2013-06-28T08:30:15Z</time>
      </trkpt>
      <trkpt lat="45.59465" lon="5.98827">
        <ele>855.8543091</ele>
        <time>2013-06-28T08:30:46Z</time>
      </trkpt>
      <trkpt lat="45.59464" lon="5.988">
        <ele>851.4155884</ele>
        <time>2013-06-28T08:31:01Z</time>
      </trkpt>
      <trkpt lat="45.59466" lon="5.98774">
        <ele>857.2401123</ele>
        <time>2013-06-28T08:31:10Z</time>
      </trkpt>
      <trkpt lat="45.59465" lon="5.98731">
        <ele>859.3347778</ele>
        <time>2013-06-28T08:31:42Z</time>
      </trkpt>
      <trkpt lat="45.59459" lon="5.98706">
        <ele>867.3238525</ele>
        <time>2013-06-28T08:32:03Z</time>
      </trkpt>
      <trkpt lat="45.59453" lon="5.9868">
        <ele>866.079834</ele>
        <time>2013-06-28T08:32:07Z</time>
      </trkpt>
      <trkpt lat="45.59444" lon="5.98655">
        <ele>858.713501</ele>
        <time>2013-06-28T08:32:18Z</time>
      </trkpt>
      <trkpt lat="45.59443" lon="5.98628">
        <ele>846.8713989</ele>
        <time>2013-06-28T08:32:36Z</time>
      </trkpt>
      <trkpt lat="45.59441" lon="5.98601">
        <ele>854.9568481</ele>
        <time>2013-06-28T08:32:53Z</time>
      </trkpt>
      <trkpt lat="45.59449" lon="5.98578">
        <ele>855.595459</ele>
        <time>2013-06-28T08:33:16Z</time>
      </trkpt>
      <trkpt lat="45.59464" lon="5.98561">
        <ele>863.9575195</ele>
        <time>2013-06-28T08:33:30Z</time>
      </trkpt>
      <trkpt lat="45.59473" lon="5.98536">
        <ele>859.696167</ele>
        <time>2013-06-28T08:33:39Z</time>
      </trkpt>
      <trkpt lat="45.59455" lon="5.9854">
        <ele>832.2261963</ele>
        <time>2013-06-28T08:34:32Z</time>
      </trkpt>
      <trkpt lat="45.59438" lon="5.9855">
        <ele>816.5028076</ele>
        <time>2013-06-28T08:34:53Z</time>
      </trkpt>
      <trkpt lat="45.59423" lon="5.98565">
        <ele>821.1206055</ele>
        <time>2013-06-28T08:35:15Z</time>
      </trkpt>
      <trkpt lat="45.59409" lon="5.98586">
        <ele>801.2706909</ele>
        <time>2013-06-28T08:35:37Z</time>
      </trkpt>
      <trkpt lat="45.59401" lon="5.9862">
        <ele>802.7197266</ele>
        <time>2013-06-28T08:35:59Z</time>
      </trkpt>
      <trkpt lat="45.5939" lon="5.98641">
        <ele>807.5797729</ele>
        <time>2013-06-28T08:36:12Z</time>
      </trkpt>
      <trkpt lat="45.5938" lon="5.98662">
        <ele>812.8988037</ele>
        <time>2013-06-28T08:36:17Z</time>
      </trkpt>
      <trkpt lat="45.5937" lon="5.98686">
        <ele>818.7022095</ele>
        <time>2013-06-28T08:36:29Z</time>
      </trkpt>
      <trkpt lat="45.59361" lon="5.98709">
        <ele>800.5247803</ele>
        <time>2013-06-28T08:36:47Z</time>
      </trkpt>
      <trkpt lat="45.59354" lon="5.98733">
        <ele>809.9356079</ele>
        <time>2013-06-28T08:37:08Z</time>
      </trkpt>
      <trkpt lat="45.59346" lon="5.98709">
        <ele>780.4052734</ele>
        <time>2013-06-28T08:37:30Z</time>
      </trkpt>
      <trkpt lat="45.59349" lon="5.98681">
        <ele>764.6733398</ele>
        <time>2013-06-28T08:37:46Z</time>
      </trkpt>
      <trkpt lat="45.59349" lon="5.98654">
        <ele>772.0256348</ele>
        <time>2013-06-28T08:38:04Z</time>
      </trkpt>
      <trkpt lat="45.59348" lon="5.98625">
        <ele>770.0427856</ele>
        <time>2013-06-28T08:38:22Z</time>
      </trkpt>
      <trkpt lat="45.59348" lon="5.98597">
        <ele>771.2999878</ele>
        <time>2013-06-28T08:38:35Z</time>
      </trkpt>
      <trkpt lat="45.59344" lon="5.98571">
        <ele>757.3792114</ele>
        <time>2013-06-28T08:38:56Z</time>
      </trkpt>
      <trkpt lat="45.59343" lon="5.98545">
        <ele>777.0130005</ele>
        <time>2013-06-28T08:39:07Z</time>
      </trkpt>
      <trkpt lat="45.59344" lon="5.98519">
        <ele>776.4185181</ele>
        <time>2013-06-28T08:39:24Z</time>
      </trkpt>
      <trkpt lat="45.59353" lon="5.98497">
        <ele>770.9841919</ele>
        <time>2013-06-28T08:39:43Z</time>
      </trkpt>
      <trkpt lat="45.5936" lon="5.98472">
        <ele>768.9989624</ele>
        <time>2013-06-28T08:40:03Z</time>
      </trkpt>
      <trkpt lat="45.59367" lon="5.98447">
        <ele>775.9811401</ele>
        <time>2013-06-28T08:40:25Z</time>
      </trkpt>
      <trkpt lat="45.59375" lon="5.98424">
        <ele>764.5505981</ele>
        <time>2013-06-28T08:40:39Z</time>
      </trkpt>
      <trkpt lat="45.59357" lon="5.98432">
        <ele>753.7459717</ele>
        <time>2013-06-28T08:41:15Z</time>
      </trkpt>
      <trkpt lat="45.59336" lon="5.98438">
        <ele>753.7572021</ele>
        <time>2013-06-28T08:41:35Z</time>
      </trkpt>
      <trkpt lat="45.59321" lon="5.98459">
        <ele>738.675354</ele>
        <time>2013-06-28T08:42:01Z</time>
      </trkpt>
      <trkpt lat="45.59312" lon="5.98488">
        <ele>729.0593872</ele>
        <time>2013-06-28T08:42:13Z</time>
      </trkpt>
      <trkpt lat="45.59301" lon="5.98513">
        <ele>728.7607422</ele>
        <time>2013-06-28T08:42:31Z</time>
      </trkpt>
      <trkpt lat="45.59288" lon="5.98532">
        <ele>720.7640381</ele>
        <time>2013-06-28T08:42:46Z</time>
      </trkpt>
      <trkpt lat="45.59276" lon="5.98551">
        <ele>732.5795288</ele>
        <time>2013-06-28T08:43:05Z</time>
      </trkpt>
      <trkpt lat="45.59264" lon="5.98574">
        <ele>723.395752</ele>
        <time>2013-06-28T08:43:22Z</time>
      </trkpt>
      <trkpt lat="45.59254" lon="5.98595">
        <ele>711.4481812</ele>
        <time>2013-06-28T08:43:47Z</time>
      </trkpt>
      <trkpt lat="45.5924" lon="5.98614">
        <ele>705.9030762</ele>
        <time>2013-06-28T08:44:01Z</time>
      </trkpt>
      <trkpt lat="45.59229" lon="5.98637">
        <ele>723.0617676</ele>
        <time>2013-06-28T08:45:45Z</time>
      </trkpt>
      <trkpt lat="45.59222" lon="5.98612">
        <ele>703.4880371</ele>
        <time>2013-06-28T08:46:13Z</time>
      </trkpt>
      <trkpt lat="45.59228" lon="5.98581">
        <ele>691.0695801</ele>
        <time>2013-06-28T08:46:43Z</time>
      </trkpt>
      <trkpt lat="45.59228" lon="5.98553">
        <ele>696.1623535</ele>
        <time>2013-06-28T08:46:56Z</time>
      </trkpt>
      <trkpt lat="45.59226" lon="5.98524">
        <ele>694.3336182</ele>
        <time>2013-06-28T08:47:14Z</time>
      </trkpt>
      <trkpt lat="45.59228" lon="5.98497">
        <ele>708.5097656</ele>
        <time>2013-06-28T08:47:37Z</time>
      </trkpt>
      <trkpt lat="45.5923" lon="5.98472">
        <ele>695.7171631</ele>
        <time>2013-06-28T08:47:53Z</time>
      </trkpt>
      <trkpt lat="45.59235" lon="5.98447">
        <ele>693.2838135</ele>
        <time>2013-06-28T08:48:03Z</time>
      </trkpt>
      <trkpt lat="45.59239" lon="5.9842">
        <ele>702.338501</ele>
        <time>2013-06-28T08:48:22Z</time>
      </trkpt>
      <trkpt lat="45.59246" lon="5.98391">
        <ele>686.8654785</ele>
        <time>2013-06-28T08:48:44Z</time>
      </trkpt>
      <trkpt lat="45.59252" lon="5.98365">
        <ele>688.4514771</ele>
        <time>2013-06-28T08:49:02Z</time>
      </trkpt>
      <trkpt lat="45.59252" lon="5.98339">
        <ele>676.6159668</ele>
        <time>2013-06-28T08:49:18Z</time>
      </trkpt>
      <trkpt lat="45.59248" lon="5.98314">
        <ele>687.486145</ele>
        <time>2013-06-28T08:49:39Z</time>
      </trkpt>
      <trkpt lat="45.5924" lon="5.98337">
        <ele>680.4515381</ele>
        <time>2013-06-28T08:50:20Z</time>
      </trkpt>
      <trkpt lat="45.59227" lon="5.98356">
        <ele>668.2108765</ele>
        <time>2013-06-28T08:50:40Z</time>
      </trkpt>
      <trkpt lat="45.59215" lon="5.98376">
        <ele>670.3657227</ele>
        <time>2013-06-28T08:50:54Z</time>
      </trkpt>
      <trkpt lat="45.59199" lon="5.98398">
        <ele>679.1542358</ele>
        <time>2013-06-28T08:51:25Z</time>
      </trkpt>
      <trkpt lat="45.59186" lon="5.98417">
        <ele>667.5910645</ele>
        <time>2013-06-28T08:51:38Z</time>
      </trkpt>
      <trkpt lat="45.59175" lon="5.98445">
        <ele>671.0671387</ele>
        <time>2013-06-28T08:51:46Z</time>
      </trkpt>
      <trkpt lat="45.59159" lon="5.98462">
        <ele>649.4667969</ele>
        <time>2013-06-28T08:52:11Z</time>
      </trkpt>
      <trkpt lat="45.59142" lon="5.98471">
        <ele>640.552002</ele>
        <time>2013-06-28T08:52:33Z</time>
      </trkpt>
      <trkpt lat="45.59121" lon="5.98487">
        <ele>635.5112305</ele>
        <time>2013-06-28T08:52:45Z</time>
      </trkpt>
      <trkpt lat="45.59103" lon="5.98497">
        <ele>642.8612061</ele>
        <time>2013-06-28T08:52:54Z</time>
      </trkpt>
      <trkpt lat="45.59086" lon="5.98508">
        <ele>638.0391846</ele>
        <time>2013-06-28T08:53:08Z</time>
      </trkpt>
      <trkpt lat="45.59072" lon="5.98492">
        <ele>628.5373535</ele>
        <time>2013-06-28T08:54:16Z</time>
      </trkpt>
      <trkpt lat="45.59086" lon="5.98475">
        <ele>638.5098267</ele>
        <time>2013-06-28T08:55:14Z</time>
      </trkpt>
      <trkpt lat="45.59098" lon="5.98455">
        <ele>641.9519043</ele>
        <time>2013-06-28T08:55:38Z</time>
      </trkpt>
      <trkpt lat="45.59105" lon="5.98431">
        <ele>640.1236572</ele>
        <time>2013-06-28T08:55:56Z</time>
      </trkpt>
      <trkpt lat="45.5912" lon="5.98402">
        <ele>659.4733276</ele>
        <time>2013-06-28T08:56:21Z</time>
      </trkpt>
      <trkpt lat="45.59136" lon="5.98381">
        <ele>653.1105957</ele>
        <time>2013-06-28T08:56:38Z</time>
      </trkpt>
      <trkpt lat="45.59149" lon="5.98358">
        <ele>653.2182007</ele>
        <time>2013-06-28T08:57:14Z</time>
      </trkpt>
      <trkpt lat="45.59154" lon="5.98333">
        <ele>652.6264038</ele>
        <time>2013-06-28T08:57:31Z</time>
      </trkpt>
      <trkpt lat="45.59153" lon="5.98305">
        <ele>650.7791748</ele>
        <time>2013-06-28T08:57:47Z</time>
      </trkpt>
      <trkpt lat="45.5915" lon="5.98278">
        <ele>637.7433472</ele>
        <time>2013-06-28T08:58:03Z</time>
      </trkpt>
      <trkpt lat="45.59154" lon="5.98249">
        <ele>650.3747559</ele>
        <time>2013-06-28T08:58:20Z</time>
      </trkpt>
      <trkpt lat="45.5916" lon="5.98222">
        <ele>638.3511963</ele>
        <time>2013-06-28T08:58:35Z</time>
      </trkpt>
      <trkpt lat="45.59165" lon="5.98197">
        <ele>642.3718872</ele>
        <time>2013-06-28T08:58:54Z</time>
      </trkpt>
      <trkpt lat="45.59163" lon="5.98167">
        <ele>640.9414062</ele>
        <time>2013-06-28T08:59:11Z</time>
      </trkpt>
      <trkpt lat="45.59166" lon="5.98139">
        <ele>624.9465332</ele>
        <time>2013-06-28T09:00:18Z</time>
      </trkpt>
      <trkpt lat="45.59174" lon="5.98162">
        <ele>592.1328735</ele>
        <time>2013-06-28T09:01:32Z</time>
      </trkpt>
      <trkpt lat="45.59155" lon="5.98161">
        <ele>591.9163818</ele>
        <time>2013-06-28T09:02:21Z</time>
      </trkpt>
      <trkpt lat="45.59137" lon="5.98167">
        <ele>591.9891357</ele>
        <time>2013-06-28T09:02:40Z</time>
      </trkpt>
    </trkseg>
  </trk>
</gpx>